createdAt,value
2022-09-05T00:00:24.822Z,98272.38
2022-09-05T00:06:25.551Z,98313.75
2022-09-05T00:11:44.523Z,98315.66
2022-09-05T00:17:06.403Z,98332.06
2022-09-05T00:24:34.561Z,98300.44
2022-09-05T00:28:25.180Z,98329.53
2022-09-05T00:33:46.790Z,98297.22
2022-09-05T00:39:15.308Z,98319.31
2022-09-05T00:44:27.943Z,98330.50
2022-09-05T00:49:46.643Z,98249.75
2022-09-05T00:55:15.481Z,98321.56
2022-09-05T01:00:19.334Z,98314.22
2022-09-05T01:05:44.629Z,98308.00
2022-09-05T01:11:05.403Z,98295.28
2022-09-05T01:16:30.413Z,98306.19
2022-09-05T01:21:54.825Z,98292.94
2022-09-05T01:27:01.402Z,98311.25
2022-09-05T01:32:17.121Z,98286.53
2022-09-05T01:37:42.746Z,98298.81
2022-09-05T01:43:02.322Z,98284.50
2022-09-05T01:48:14.672Z,98279.53
2022-09-05T01:53:26.664Z,98277.91
2022-09-05T01:58:49.535Z,98279.25
2022-09-05T02:04:30.221Z,98278.66
2022-09-05T02:09:51.080Z,98243.88
2022-09-05T02:15:08.203Z,98141.00
2022-09-05T02:20:42.256Z,98274.66
2022-09-05T02:26:04.291Z,98230.88
2022-09-05T02:31:19.502Z,98274.28
2022-09-05T02:36:37.751Z,98276.94
2022-09-05T02:45:21.829Z,98139.38
2022-09-05T02:47:44.299Z,98247.06
2022-09-05T02:57:38.556Z,98022.97
2022-09-05T02:58:42.754Z,98280.59
2022-09-05T03:03:51.667Z,98275.69
2022-09-05T03:09:16.911Z,98274.00
2022-09-05T03:14:42.087Z,98279.31
2022-09-05T03:20:12.373Z,97997.94
2022-09-05T03:25:58.088Z,98246.28
2022-09-05T03:31:35.410Z,98280.16
2022-09-05T03:37:23.893Z,98291.13
2022-09-05T03:42:52.784Z,98307.13
2022-09-05T03:48:23.175Z,98300.53
2022-09-05T03:57:19.058Z,98272.88
2022-09-05T03:59:34.633Z,98286.13
2022-09-05T04:08:17.688Z,98187.47
2022-09-05T04:10:33.946Z,98292.25
2022-09-05T04:15:59.864Z,98291.56
2022-09-05T04:21:11.189Z,98249.31
2022-09-05T04:26:55.162Z,98301.66
2022-09-05T04:32:18.303Z,98304.13
2022-09-05T04:37:48.416Z,98304.50
2022-09-05T04:42:52.830Z,98318.25
2022-09-05T04:48:00.773Z,98064.88
2022-09-05T04:53:24.756Z,98321.69
2022-09-05T05:00:58.951Z,98334.41
2022-09-05T05:06:17.104Z,98326.75
2022-09-05T05:09:51.613Z,98337.44
2022-09-05T05:18:11.663Z,98145.84
2022-09-05T05:21:02.318Z,98163.31
2022-09-05T05:26:10.546Z,98291.25
2022-09-05T05:32:03.316Z,98309.75
2022-09-05T05:37:22.069Z,98302.63
2022-09-05T05:42:28.306Z,98201.47
2022-09-05T05:47:43.903Z,98324.38
2022-09-05T05:53:05.201Z,98315.91
2022-09-05T05:58:18.399Z,98304.84
2022-09-05T06:03:57.610Z,98320.22
2022-09-05T06:14:49.880Z,98317.72
2022-09-05T06:15:10.190Z,98309.75
2022-09-05T06:22:04.550Z,98302.66
2022-09-05T06:26:20.109Z,98301.50
2022-09-05T06:31:42.115Z,98294.69
2022-09-05T06:37:05.480Z,98291.03
2022-09-05T06:42:40.672Z,98293.38
2022-09-05T06:47:45.659Z,98272.22
2022-09-05T06:53:44.811Z,98294.06
2022-09-05T06:59:21.412Z,98284.94
2022-09-05T07:05:38.039Z,98296.28
2022-09-05T07:10:38.464Z,98285.41
2022-09-05T07:16:01.815Z,98222.53
2022-09-05T07:21:17.802Z,98279.50
2022-09-05T07:26:35.074Z,98273.34
2022-09-05T07:31:55.322Z,98279.97
2022-09-05T07:37:15.098Z,98237.50
2022-09-05T07:42:34.432Z,98271.56
2022-09-05T07:48:06.353Z,98113.69
2022-09-05T07:57:03.979Z,98091.47
2022-09-05T07:58:44.962Z,98278.31
2022-09-05T08:03:56.304Z,98316.00
2022-09-05T08:10:08.678Z,98236.59
2022-09-05T08:14:46.122Z,98310.94
2022-09-05T08:20:09.410Z,98238.19
2022-09-05T08:25:42.865Z,98295.03
2022-09-05T08:31:26.354Z,98276.91
2022-09-05T08:36:47.070Z,98270.19
2022-09-05T08:42:03.352Z,98204.81
2022-09-05T10:01:36.078Z,98276.50
2022-09-05T10:17:48.708Z,98274.53
2022-09-05T10:51:40.099Z,98257.06
2022-09-05T10:56:51.713Z,98243.88
2022-09-05T11:06:40.385Z,98248.88
2022-09-05T11:11:47.288Z,98245.13
2022-09-05T11:16:55.979Z,98002.41
2022-09-05T11:22:22.485Z,98128.03
2022-09-05T11:27:35.608Z,98224.47
2022-09-05T11:37:32.155Z,98225.94
2022-09-05T11:40:05.247Z,98236.41
2022-09-05T11:43:40.759Z,98228.19
2022-09-05T11:49:09.298Z,98230.44
2022-09-05T11:54:49.891Z,98228.41
2022-09-05T12:00:33.170Z,97962.03
2022-09-05T12:06:08.452Z,98227.69
2022-09-05T12:11:30.519Z,98209.84
2022-09-05T12:16:37.574Z,98212.34
2022-09-05T12:27:46.059Z,98202.84
2022-09-05T12:36:02.433Z,97957.75
2022-09-05T12:41:35.631Z,98191.56
2022-09-05T12:41:41.391Z,98205.00
2022-09-05T12:44:44.179Z,98134.97
2022-09-05T12:50:14.312Z,98178.13
2022-09-05T12:55:26.854Z,98182.28
2022-09-05T13:03:07.999Z,98148.56
2022-09-05T13:06:19.489Z,97950.63
2022-09-05T13:14:48.634Z,97909.63
2022-09-05T13:16:58.842Z,97974.56
2022-09-05T13:27:22.876Z,98147.13
2022-09-05T13:38:06.055Z,98096.53
2022-09-05T13:43:39.095Z,97942.50
2022-09-05T13:49:30.410Z,97963.03
2022-09-05T13:54:52.082Z,98126.84
2022-09-05T14:00:08.218Z,98106.97
2022-09-05T14:05:40.970Z,98118.69
2022-09-05T14:11:15.156Z,97897.97
2022-09-05T14:16:32.336Z,98043.53
2022-09-05T14:21:40.012Z,97936.47
2022-09-05T14:27:03.991Z,98094.09
2022-09-05T14:37:35.357Z,98093.53
2022-09-05T14:38:11.573Z,98094.94
2022-09-05T14:43:27.525Z,98087.84
2022-09-05T14:49:25.022Z,98085.69
2022-09-05T15:02:38.684Z,98041.19
2022-09-05T15:05:32.694Z,98080.28
2022-09-05T15:12:17.473Z,97873.50
2022-09-05T15:16:11.572Z,97935.94
2022-09-05T15:21:33.678Z,98085.13
2022-09-05T15:26:51.943Z,98080.69
2022-09-05T15:32:19.107Z,98057.09
2022-09-05T15:37:50.949Z,98074.00
2022-09-05T15:43:03.037Z,98073.19
2022-09-05T15:48:23.428Z,98008.63
2022-09-05T15:53:35.472Z,97903.25
2022-09-05T15:58:55.025Z,98027.34
2022-09-05T16:08:56.800Z,97912.88
2022-09-05T16:10:35.759Z,98047.66
2022-09-05T16:17:44.761Z,97995.31
2022-09-05T16:23:34.061Z,98030.03
2022-09-05T16:26:34.693Z,97963.28
2022-09-05T16:31:52.860Z,98048.53
2022-09-05T16:37:08.653Z,98016.38
2022-09-05T16:42:46.862Z,98006.66
2022-09-05T16:48:25.251Z,98038.84
2022-09-05T16:53:58.222Z,97979.63
2022-09-05T16:59:12.819Z,98043.59
2022-09-05T17:09:12.624Z,97920.53
2022-09-05T17:14:23.961Z,97940.88
2022-09-05T17:19:33.681Z,97892.25
2022-09-05T17:29:27.751Z,98059.59
2022-09-05T17:36:41.254Z,98057.53
2022-09-05T17:41:51.728Z,98023.72
2022-09-05T17:47:14.736Z,98071.25
2022-09-05T17:52:21.705Z,98061.91
2022-09-05T17:57:27.938Z,98058.16
2022-09-05T18:02:34.259Z,98007.28
2022-09-05T18:07:56.976Z,97994.25
2022-09-05T18:13:31.791Z,98090.00
2022-09-05T18:19:29.536Z,97861.97
2022-09-05T18:24:04.978Z,97949.13
2022-09-05T18:29:57.118Z,98002.63
2022-09-05T18:35:16.570Z,97980.66
2022-09-05T18:40:36.697Z,98116.88
2022-09-05T18:45:52.817Z,97976.91
2022-09-05T18:51:15.400Z,98114.16
2022-09-05T18:56:39.424Z,98103.56
2022-09-05T19:02:28.692Z,98117.97
2022-09-05T19:07:49.807Z,98109.84
2022-09-05T19:13:13.593Z,98001.47
2022-09-05T19:18:27.198Z,97989.94
2022-09-05T19:23:36.842Z,97938.41
2022-09-05T19:32:37.480Z,97882.75
2022-09-05T19:37:08.885Z,98098.75
2022-09-05T19:43:48.374Z,97970.03
2022-09-05T19:47:39.306Z,98021.31
2022-09-05T19:50:50.776Z,98037.91
2022-09-05T19:55:54.763Z,97845.47
2022-09-05T20:01:06.045Z,98090.72
2022-09-05T20:06:29.643Z,98064.16
2022-09-05T20:11:45.364Z,98098.13
2022-09-05T20:16:51.776Z,98015.25
2022-09-05T20:21:57.148Z,97944.81
2022-09-05T20:27:02.907Z,98099.88
2022-09-05T20:32:07.564Z,97982.78
2022-09-05T20:43:18.808Z,97946.22
2022-09-05T20:43:20.808Z,97919.41
2022-09-05T20:54:05.434Z,98110.50
2022-09-05T20:54:32.155Z,97902.13
2022-09-05T20:58:59.474Z,97956.41
2022-09-05T21:04:06.019Z,97994.28
2022-09-05T21:09:14.841Z,98101.69
2022-09-05T21:14:22.835Z,98072.16
2022-09-05T21:19:30.878Z,98064.63
2022-09-05T21:24:34.610Z,98115.75
2022-09-05T21:29:40.343Z,97850.63
2022-09-05T21:34:53.691Z,98044.72
2022-09-05T21:40:00.158Z,97978.72
2022-09-05T21:47:46.668Z,98118.63
2022-09-05T21:50:32.062Z,97995.91
2022-09-05T21:59:21.157Z,97965.81
2022-09-05T22:00:59.644Z,98100.97
2022-09-05T22:06:07.154Z,98046.66
2022-09-05T22:11:14.832Z,98132.00
2022-09-05T22:16:18.448Z,98049.09
2022-09-05T22:21:32.575Z,97893.97
2022-09-05T22:27:06.220Z,98059.94
2022-09-05T22:32:11.881Z,98026.56
2022-09-05T22:37:17.700Z,97905.84
2022-09-05T22:42:21.281Z,98129.63
2022-09-05T22:47:25.208Z,98058.13
2022-09-05T22:52:28.796Z,97962.69
2022-09-05T22:57:32.197Z,97944.25
2022-09-05T23:02:38.312Z,97961.19
2022-09-05T23:07:41.708Z,98104.06
2022-09-05T23:12:45.403Z,98127.53
2022-09-05T23:17:56.008Z,97946.91
2022-09-05T23:23:04.380Z,97851.94
2022-09-05T23:28:09.665Z,98055.38
2022-09-05T23:33:13.201Z,97970.03
2022-09-05T23:38:17.896Z,97959.25
2022-09-05T23:43:27.550Z,98079.25
2022-09-05T23:48:31.666Z,97884.66
2022-09-05T23:53:35.557Z,98117.69
2022-09-05T23:58:39.549Z,98100.00
